Аэропорт: Мирный. Мирный

ICAO: UERR

METAR:
2021-04-21 19:00:00
UERR 211900Z 35002MPS CAVOK M10/M19 Q1022 R07/CLRD60 NOSIG RMK QFE737/0982
METAR:
2021-04-21 17:00:00
TAF UERR 211700Z 2118/2218 VRB01MPS 9999 SCT023 TEMPO 2121/2124 1000 BR VV003 BECMG 2200/2202 27005G11MPS